Time;durP1;ratioP1;P1;durP2;ratioP2;P2;SDS_P1;SDS_P2;PMS_P1;PMS_P2;Temp;Humidity;BMP_temperature;BMP_pressure;BME280_temperature;BME280_humidity;BME280_pressure;Samples;Min_cycle;Max_cycle;Signal;HPM_P1;HPM_P2
2021/01/16 00:25:11;;;;;;;10.60;5.30;;;-0.50;99.90;;;;;;4988618;28;20082;-82
2021/01/16 00:28:49;;;;;;;12.10;4.75;;;-0.50;99.90;;;;;;4929987;29;20117;-81
2021/01/16 00:40:20;;;;;;;10.38;5.30;;;-0.20;99.90;;;;;;5240201;23;20055;-81
2021/01/16 00:44:06;;;;;;;10.77;4.95;;;-0.30;99.90;;;;;;4966260;29;20102;-82
2021/01/16 00:47:42;;;;;;;11.73;5.25;;;-0.20;99.90;;;;;;4901020;29;20053;-82
2021/01/16 01:00:28;;;;;;;9.95;4.75;;;-0.30;99.90;;;;;;4983109;28;20119;-82
2021/01/16 01:04:00;;;;;;;7.90;3.85;;;-0.50;99.90;;;;;;4932227;29;20071;-83
2021/01/16 01:07:00;;;;;;;8.82;4.65;;;-0.50;99.90;;;;;;4935898;29;20055;-84
2021/01/16 01:09:45;;;;;;;;;;;-0.60;99.90;;;;;;5019538;23;20050;-83
2021/01/16 01:12:14;;;;;;;9.43;4.45;;;-1.50;99.90;;;;;;4955399;29;20005;-82
2021/01/16 01:14:40;;;;;;;12.00;4.65;;;;;;;;;;4963057;28;20051;-81
2021/01/16 01:17:17;;;;;;;9.77;4.85;;;-0.60;99.90;;;;;;4962945;28;20046;-82
2021/01/16 01:20:19;;;;;;;8.98;4.65;;;-0.80;99.90;;;;;;4951805;29;20044;-83
2021/01/16 01:23:09;;;;;;;12.00;5.13;;;-0.50;99.90;;;;;;4951364;29;20489;-82
2021/01/16 01:26:08;;;;;;;8.25;4.70;;;-0.40;99.90;;;;;;4949412;29;20111;-82
2021/01/16 01:29:02;;;;;;;10.70;5.30;;;;;;;;;;4952723;29;20059;-82
2021/01/16 01:31:52;;;;;;;10.45;4.70;;;-0.20;99.90;;;;;;4949504;29;20051;-83
2021/01/16 01:34:47;;;;;;;11.83;5.13;;;-0.20;99.90;;;;;;4966992;29;20066;-82
2021/01/16 01:37:21;;;;;;;9.70;4.53;;;-0.20;99.90;;;;;;4963881;28;20039;-82
2021/01/16 01:40:15;;;;;;;11.27;4.78;;;-0.30;99.90;;;;;;4963977;29;20047;-83
2021/01/16 01:42:53;;;;;;;10.07;4.47;;;-0.30;99.90;;;;;;4963465;29;20039;-82
2021/01/16 01:45:23;;;;;;;9.65;4.25;;;-0.20;99.90;;;;;;4962993;29;20166;-83
2021/01/16 01:47:49;;;;;;;8.38;3.70;;;;;;;;;;4960941;28;20062;-82
2021/01/16 01:50:17;;;;;;;8.93;4.37;;;-0.30;99.90;;;;;;4962610;28;20114;-83
2021/01/16 01:53:00;;;;;;;10.40;3.90;;;-0.40;99.90;;;;;;4960572;28;20098;-83
2021/01/16 01:55:27;;;;;;;9.03;4.23;;;-0.40;99.90;;;;;;4960877;29;20050;-82
2021/01/16 01:57:54;;;;;;;7.60;4.50;;;;;;;;;;4944558;29;20097;-82
2021/01/16 02:00:23;;;;;;;8.50;3.80;;;-0.30;99.90;;;;;;4968955;28;20050;-82
2021/01/16 02:02:57;;;;;;;9.53;3.93;;;-0.30;99.90;;;;;;4965354;28;20051;-83
2021/01/16 02:05:26;;;;;;;9.30;4.78;;;;;;;;;;4981400;28;20101;-82
2021/01/16 02:07:56;;;;;;;10.65;4.63;;;;;;;;;;4980146;28;20122;-82
2021/01/16 02:10:26;;;;;;;9.88;4.55;;;-0.40;99.90;;;;;;4963424;28;20101;-82
2021/01/16 02:12:55;;;;;;;10.93;4.77;;;-0.40;99.90;;;;;;4979825;28;20047;-82
2021/01/16 02:15:29;;;;;;;10.95;5.10;;;-0.60;99.90;;;;;;4979761;28;20062;-82
2021/01/16 02:18:02;;;;;;;10.85;5.03;;;0.90;99.90;;;;;;4980071;28;20416;-82
2021/01/16 02:20:34;;;;;;;10.73;5.40;;;-0.60;99.90;;;;;;4980404;28;20065;-82
2021/01/16 02:23:40;;;;;;;11.45;5.38;;;-0.70;99.90;;;;;;4946634;28;20085;-82
2021/01/16 02:26:49;;;;;;;10.27;5.50;;;-0.80;99.90;;;;;;4960125;28;20105;-83
2021/01/16 02:29:17;;;;;;;11.02;5.03;;;-0.80;99.90;;;;;;4961051;28;20049;-82
2021/01/16 02:31:49;;;;;;;12.98;5.80;;;-0.70;99.90;;;;;;4961418;28;20485;-82
2021/01/16 02:34:21;;;;;;;12.80;5.63;;;-0.70;99.90;;;;;;4978325;28;20038;-83
2021/01/16 02:37:18;;;;;;;12.53;5.50;;;-0.70;99.90;;;;;;4979165;28;20043;-82
2021/01/16 02:39:57;;;;;;;12.40;5.97;;;-0.60;99.90;;;;;;4960827;28;20054;-82
2021/01/16 02:42:37;;;;;;;11.07;5.18;;;-0.70;99.90;;;;;;4961106;28;20042;-82
2021/01/16 02:45:06;;;;;;;;;;;-0.40;99.90;;;;;;4978275;28;20453;-82
2021/01/16 02:47:45;;;;;;;11.55;5.68;;;-0.60;99.90;;;;;;4978624;28;19922;-82
2021/01/16 02:50:25;;;;;;;14.93;5.90;;;-0.70;99.90;;;;;;4977756;28;20257;-82
2021/01/16 02:52:51;;;;;;;12.80;6.13;;;;;;;;;;4960963;28;20404;-82
2021/01/16 02:55:17;;;;;;;14.35;6.40;;;;;;;;;;4977630;28;20069;-82
2021/01/16 02:57:44;;;;;;;12.75;6.03;;;;;;;;;;4977428;28;20042;-83
2021/01/16 03:00:18;;;;;;;14.77;7.00;;;-0.80;99.90;;;;;;4959818;28;20141;-82
2021/01/16 03:02:44;;;;;;;12.48;6.20;;;;;;;;;;4968541;28;20047;-82
2021/01/16 03:05:14;;;;;;;17.20;6.53;;;;;;;;;;4941018;29;20047;-82
2021/01/16 03:07:42;;;;;;;14.30;6.72;;;;;;;;;;4940499;29;20123;-82
2021/01/16 03:10:11;;;;;;;14.45;6.57;;;-0.60;99.90;;;;;;4940330;29;20109;-83
2021/01/16 03:12:38;;;;;;;13.57;6.45;;;-0.50;99.90;;;;;;4958385;28;20040;-83
2021/01/16 03:15:06;;;;;;;13.70;6.45;;;-0.60;99.90;;;;;;4957774;28;20569;-82
2021/01/16 03:17:48;;;;;;;15.45;6.88;;;-0.60;99.90;;;;;;4956533;28;20117;-82
2021/01/16 03:20:19;;;;;;;13.53;6.67;;;-0.60;99.90;;;;;;4958911;29;20053;-82
2021/01/16 03:22:49;;;;;;;14.73;6.17;;;-0.60;99.90;;;;;;4958144;29;20130;-83
2021/01/16 03:25:19;;;;;;;12.98;6.57;;;-0.60;99.90;;;;;;4958340;29;20047;-83
2021/01/16 03:27:49;;;;;;;15.57;6.68;;;-0.60;99.90;;;;;;4959840;29;20059;-83
2021/01/16 03:30:17;;;;;;;12.18;6.35;;;-0.60;99.90;;;;;;4942009;29;20085;-82
2021/01/16 03:32:47;;;;;;;17.10;6.70;;;;;;;;;;4941993;29;20047;-82
2021/01/16 03:35:16;;;;;;;15.18;6.93;;;-0.60;99.90;;;;;;4959505;29;20094;-83
2021/01/16 03:37:43;;;;;;;12.90;6.22;;;-0.60;99.90;;;;;;4957660;28;20043;-82
2021/01/16 03:40:13;;;;;;;16.27;6.80;;;-0.80;99.90;;;;;;4956536;28;20058;-82
2021/01/16 03:42:42;;;;;;;14.63;7.03;;;-0.70;99.90;;;;;;4957786;29;20069;-82
2021/01/16 03:45:13;;;;;;;15.52;6.65;;;-0.70;99.90;;;;;;4954249;29;20062;-82
2021/01/16 03:47:41;;;;;;;15.20;6.93;;;;;;;;;;4956874;28;20051;-82
2021/01/16 03:50:09;;;;;;;13.57;6.57;;;;;;;;;;4997106;23;20133;-83
2021/01/16 03:52:36;;;;;;;15.63;6.93;;;-0.60;99.90;;;;;;4997981;28;20149;-82
2021/01/16 03:55:07;;;;;;;16.27;6.73;;;-0.60;99.90;;;;;;4998342;28;20381;-82
2021/01/16 03:57:33;;;;;;;12.43;6.53;;;;;;;;;;4997839;28;20392;-82
2021/01/16 03:59:59;;;;;;;16.63;7.67;;;;;;;;;;4997455;28;20046;-82
2021/01/16 04:02:25;;;;;;;14.23;7.05;;;;;;;;;;4997392;28;20500;-82
2021/01/16 04:04:51;;;;;;;14.48;6.93;;;;;;;;;;4997715;28;20046;-82
2021/01/16 04:07:18;;;;;;;18.43;7.10;;;;;;;;;;5010885;28;20077;-82
2021/01/16 04:09:45;;;;;;;14.02;6.82;;;;;;;;;;5016302;28;20046;-82
2021/01/16 04:12:11;;;;;;;14.82;6.50;;;;;;;;;;5013129;28;20054;-82
2021/01/16 04:14:37;;;;;;;15.83;6.87;;;;;;;;;;4997107;28;20100;-82
2021/01/16 04:17:04;;;;;;;14.38;6.88;;;-0.50;99.90;;;;;;4997268;28;20038;-82
2021/01/16 04:19:30;;;;;;;14.75;7.07;;;;;;;;;;4997447;28;20037;-82
2021/01/16 04:21:56;;;;;;;16.42;7.13;;;;;;;;;;4997527;28;20545;-82
2021/01/16 04:24:23;;;;;;;14.65;7.25;;;;;;;;;;4997444;28;20041;-82
2021/01/16 04:26:49;;;;;;;13.07;6.55;;;;;;;;;;4997248;28;20042;-82
2021/01/16 04:29:16;;;;;;;12.82;6.22;;;;;;;;;;4997013;28;20065;-82
2021/01/16 04:31:42;;;;;;;17.30;6.93;;;;;;;;;;4997527;28;20077;-82
2021/01/16 04:34:08;;;;;;;16.47;7.60;;;;;;;;;;5001312;28;20050;-82
2021/01/16 04:36:34;;;;;;;18.97;7.33;;;;;;;;;;5017635;28;20087;-82
2021/01/16 04:39:00;;;;;;;14.97;6.77;;;;;;;;;;5016679;28;20053;-82
2021/01/16 04:41:29;;;;;;;12.82;6.40;;;-0.50;99.90;;;;;;5017129;28;20491;-81
2021/01/16 04:43:56;;;;;;;14.07;6.65;;;-0.40;99.90;;;;;;5016951;28;20045;-82
2021/01/16 04:46:22;;;;;;;13.27;6.37;;;;;;;;;;5016738;28;20034;-82
2021/01/16 04:48:54;;;;;;;16.27;6.90;;;-0.40;99.90;;;;;;5016439;28;20050;-82
2021/01/16 04:51:23;;;;;;;14.80;6.70;;;-0.40;99.90;;;;;;5016626;28;20042;-82
2021/01/16 04:53:56;;;;;;;20.37;7.23;;;-0.30;99.90;;;;;;5016722;28;20107;-82
2021/01/16 04:56:22;;;;;;;14.35;7.03;;;;;;;;;;5016809;28;20045;-82
2021/01/16 04:58:50;;;;;;;15.23;6.70;;;;;;;;;;5016975;28;20056;-82
2021/01/16 05:01:20;;;;;;;14.43;6.30;;;-0.30;99.90;;;;;;5016789;28;20462;-82
2021/01/16 05:03:50;;;;;;;13.53;6.57;;;-0.30;99.90;;;;;;5016524;28;20068;-82
2021/01/16 05:06:19;;;;;;;14.52;7.68;;;-0.50;99.90;;;;;;5016620;28;20073;-82
2021/01/16 05:08:46;;;;;;;12.60;7.07;;;-0.70;99.90;;;;;;5016353;28;20044;-82
2021/01/16 05:11:17;;;;;;;18.35;7.97;;;-0.60;99.90;;;;;;5016381;28;20046;-82
2021/01/16 05:13:44;;;;;;;13.43;6.43;;;-0.50;99.90;;;;;;5016703;28;20044;-82
2021/01/16 05:16:14;;;;;;;15.07;6.37;;;-0.50;99.90;;;;;;5015368;28;20418;-82
2021/01/16 05:18:43;;;;;;;14.07;7.35;;;-0.70;99.90;;;;;;5015435;28;20764;-81
2021/01/16 05:21:10;;;;;;;20.00;7.63;;;-5.40;99.90;;;;;;5016223;28;20652;-82
2021/01/16 05:23:41;;;;;;;13.98;6.85;;;-0.60;99.90;;;;;;5018878;28;20045;-81
2021/01/16 05:26:07;;;;;;;12.97;6.87;;;;;;;;;;5018638;28;20077;-82
2021/01/16 05:28:33;;;;;;;17.83;6.78;;;;;;;;;;5018773;28;20041;-81
2021/01/16 05:31:00;;;;;;;14.05;7.13;;;;;;;;;;5020276;28;20160;-82
2021/01/16 05:33:28;;;;;;;18.30;7.72;;;-0.60;99.90;;;;;;5020650;28;20083;-82
2021/01/16 05:35:56;;;;;;;15.43;6.65;;;-0.70;99.90;;;;;;5020519;28;20076;-81
2021/01/16 05:38:25;;;;;;;19.83;8.07;;;-0.80;99.90;;;;;;5020238;28;20137;-82
2021/01/16 05:40:53;;;;;;;17.07;7.47;;;-0.70;99.90;;;;;;5020326;28;20041;-82
2021/01/16 05:43:20;;;;;;;14.60;6.87;;;;;;;;;;5020263;28;20103;-82
2021/01/16 05:45:47;;;;;;;20.50;8.02;;;-0.60;99.90;;;;;;5019608;28;20132;-81
2021/01/16 05:48:13;;;;;;;18.37;7.30;;;;;;;;;;5019249;28;20502;-82
2021/01/16 05:50:40;;;;;;;17.17;8.03;;;-0.40;99.90;;;;;;5019007;28;20056;-82
2021/01/16 05:53:06;;;;;;;15.17;7.67;;;-0.60;99.90;;;;;;5010704;28;20103;-82
2021/01/16 05:55:33;;;;;;;14.98;6.72;;;-0.30;99.90;;;;;;4999352;28;20495;-81
2021/01/16 05:58:06;;;;;;;16.08;6.85;;;-0.20;99.90;;;;;;5001405;28;20038;-81
2021/01/16 06:00:36;;;;;;;15.07;6.37;;;-0.10;99.90;;;;;;5001278;28;20080;-81
2021/01/16 06:03:05;;;;;;;13.33;6.43;;;4.00;99.90;;;;;;5001688;28;20046;-82
2021/01/16 06:05:32;;;;;;;16.38;6.38;;;0.00;99.90;;;;;;5000346;28;20038;-82
2021/01/16 06:07:59;;;;;;;14.82;7.00;;;;;;;;;;5010805;28;20048;-82
2021/01/16 06:10:25;;;;;;;11.73;6.07;;;;;;;;;;5019676;28;20128;-81
2021/01/16 06:12:52;;;;;;;13.80;6.40;;;;;;;;;;5019652;28;20056;-82
2021/01/16 06:15:19;;;;;;;16.85;6.70;;;0.00;99.90;;;;;;5019405;28;20052;-81
2021/01/16 06:17:46;;;;;;;14.70;7.10;;;0.00;99.90;;;;;;5019771;28;20100;-82
2021/01/16 06:20:14;;;;;;;12.52;6.32;;;0.00;99.90;;;;;;5002310;28;20570;-81
2021/01/16 06:22:42;;;;;;;13.13;6.37;;;-0.10;99.90;;;;;;4979569;28;20057;-81
2021/01/16 06:25:18;;;;;;;15.55;7.43;;;-0.20;99.90;;;;;;4980209;28;20046;-81
2021/01/16 06:27:45;;;;;;;14.48;7.18;;;-0.40;99.90;;;;;;4996092;28;20052;-82
2021/01/16 06:30:14;;;;;;;16.88;7.07;;;-0.60;99.90;;;;;;5033700;28;20402;-81
2021/01/16 06:32:47;;;;;;;19.43;7.37;;;-0.70;99.90;;;;;;5018695;28;20400;-82
2021/01/16 06:35:14;;;;;;;18.75;6.82;;;-0.80;99.90;;;;;;5019955;28;20086;-82
2021/01/16 06:37:42;;;;;;;17.67;7.70;;;-0.80;99.90;;;;;;5019647;28;20053;-82
2021/01/16 06:40:08;;;;;;;16.40;6.93;;;-0.70;99.90;;;;;;5019710;28;20063;-82
2021/01/16 06:42:37;;;;;;;17.83;8.00;;;-0.60;99.90;;;;;;5019670;28;20037;-82
2021/01/16 06:45:05;;;;;;;16.40;7.70;;;-0.60;99.90;;;;;;5018926;28;20555;-82
2021/01/16 06:47:33;;;;;;;17.27;7.97;;;-0.60;99.90;;;;;;5020334;28;20042;-82
2021/01/16 06:49:59;;;;;;;13.60;7.03;;;;;;;;;;5011032;28;20132;-82
2021/01/16 06:52:32;;;;;;;18.60;8.23;;;-0.60;99.90;;;;;;5019252;28;20041;-82
2021/01/16 06:54:58;;;;;;;16.67;7.93;;;;;;;;;;5020110;28;20068;-81
2021/01/16 06:57:24;;;;;;;20.30;8.50;;;-0.70;99.90;;;;;;5018939;28;20088;-82
2021/01/16 06:59:51;;;;;;;18.08;8.13;;;;;;;;;;5018463;28;20041;-82
2021/01/16 07:02:29;;;;;;;17.63;7.00;;;-0.60;99.90;;;;;;5018884;28;20056;-82
2021/01/16 07:04:57;;;;;;;15.18;6.80;;;-0.70;99.90;;;;;;5019310;28;20044;-82
2021/01/16 07:07:31;;;;;;;17.03;7.63;;;-0.60;99.90;;;;;;5019639;28;20483;-82
2021/01/16 07:10:00;;;;;;;17.98;7.50;;;-0.50;99.90;;;;;;5018698;28;20055;-82
2021/01/16 07:12:26;;;;;;;15.67;7.87;;;;;;;;;;5018864;28;20076;-82
2021/01/16 07:14:52;;;;;;;14.43;6.93;;;;;;;;;;5019532;28;20041;-81
2021/01/16 07:17:21;;;;;;;17.43;7.60;;;-0.80;99.90;;;;;;5018834;28;20073;-82
2021/01/16 07:19:47;;;;;;;17.67;7.55;;;-0.70;99.90;;;;;;5018760;28;20045;-82
2021/01/16 07:22:13;;;;;;;22.02;6.63;;;;;;;;;;5018639;28;20037;-82
2021/01/16 07:24:40;;;;;;;15.27;7.00;;;-0.50;99.90;;;;;;5018744;28;20076;-81
2021/01/16 07:27:06;;;;;;;15.68;7.57;;;;;;;;;;5019143;28;20132;-82
2021/01/16 07:29:37;;;;;;;16.90;7.90;;;-0.40;99.90;;;;;;5036468;28;20052;-82
2021/01/16 07:32:14;;;;;;;15.82;8.00;;;-0.40;99.90;;;;;;5019581;28;20045;-82
2021/01/16 07:34:43;;;;;;;15.68;7.55;;;-0.40;99.90;;;;;;5019594;28;20053;-82
2021/01/16 07:37:10;;;;;;;17.50;7.97;;;-0.20;99.90;;;;;;5020036;28;20483;-82
2021/01/16 07:39:39;;;;;;;14.80;7.18;;;-0.20;99.90;;;;;;5022296;28;20045;-82
2021/01/16 07:42:11;;;;;;;16.58;6.90;;;-0.10;99.90;;;;;;5024631;28;20041;-82
2021/01/16 07:44:41;;;;;;;17.10;6.82;;;0.00;99.90;;;;;;5033938;28;20048;-82
2021/01/16 07:47:18;;;;;;;12.77;6.00;;;-0.10;99.90;;;;;;5027496;28;20108;-82
2021/01/16 07:49:53;;;;;;;19.50;7.53;;;-0.40;99.90;;;;;;5016286;28;20509;-81
2021/01/16 07:52:23;;;;;;;15.30;7.07;;;-0.50;99.90;;;;;;4999209;28;20134;-82
2021/01/16 07:55:05;;;;;;;16.75;7.68;;;-0.40;99.90;;;;;;4998085;28;20042;-81
2021/01/16 07:57:33;;;;;;;20.47;7.90;;;;;;;;;;4997909;28;20037;-81
2021/01/16 08:00:06;;;;;;;14.10;6.73;;;-0.60;99.90;;;;;;4998343;28;20042;-81
2021/01/16 08:02:39;;;;;;;14.83;7.27;;;-0.50;99.90;;;;;;4999606;28;20041;-81
2021/01/16 08:05:19;;;;;;;17.20;8.17;;;-0.50;99.90;;;;;;5010710;28;20047;-82
2021/01/16 08:08:12;;;;;;;17.83;8.18;;;-0.50;99.90;;;;;;5037211;28;20044;-82
2021/01/16 08:10:42;;;;;;;20.17;8.65;;;-0.60;99.90;;;;;;5018028;28;20047;-82
2021/01/16 08:13:09;;;;;;;17.75;8.05;;;-0.60;99.90;;;;;;5018208;28;20041;-81
2021/01/16 08:15:40;;;;;;;17.88;6.95;;;-0.50;99.90;;;;;;5018770;28;20567;-82
2021/01/16 08:18:12;;;;;;;17.27;7.65;;;-0.40;99.90;;;;;;5018966;28;20037;-82
2021/01/16 08:20:43;;;;;;;18.23;7.50;;;-0.60;99.90;;;;;;5019507;28;20479;-82
2021/01/16 08:23:11;;;;;;;15.63;7.18;;;-0.50;99.90;;;;;;5018939;28;20099;-82
2021/01/16 08:25:37;;;;;;;19.30;7.95;;;;;;;;;;5018361;28;20037;-82
2021/01/16 08:28:04;;;;;;;18.07;8.07;;;-0.60;99.90;;;;;;5018676;28;20403;-81
2021/01/16 08:30:32;;;;;;;20.10;8.30;;;-0.60;99.90;;;;;;5019396;28;20041;-82
2021/01/16 08:33:01;;;;;;;16.13;7.35;;;-0.60;99.90;;;;;;5018676;28;20037;-82
2021/01/16 08:35:30;;;;;;;17.85;8.80;;;-0.50;99.90;;;;;;5019073;28;20079;-82
2021/01/16 08:38:31;;;;;;;17.40;8.00;;;-0.50;99.90;;;;;;5019472;28;20124;-82
2021/01/16 08:41:06;;;;;;;13.57;5.93;;;-0.40;99.90;;;;;;5012041;28;20049;-82
2021/01/16 08:43:33;;;;;;;14.85;7.60;;;;;;;;;;5019109;28;20045;-82
2021/01/16 08:46:14;;;;;;;16.43;7.90;;;-0.50;99.90;;;;;;5018518;28;20045;-82
2021/01/16 08:48:41;;;;;;;17.10;8.13;;;-0.40;99.90;;;;;;5017528;28;20046;-82
2021/01/16 08:51:27;;;;;;;17.20;7.65;;;;;;;;;;5018093;28;20040;-82
2021/01/16 08:54:06;;;;;;;22.10;8.97;;;-0.40;99.90;;;;;;5017465;28;20143;-82
2021/01/16 08:56:32;;;;;;;16.30;6.72;;;;;;;;;;5020666;28;20155;-82
2021/01/16 08:58:58;;;;;;;21.00;7.63;;;;;;;;;;5014157;28;20140;-82
2021/01/16 09:01:24;;;;;;;20.63;8.93;;;;;;;;;;5022146;28;20045;-82
2021/01/16 09:04:13;;;;;;;19.57;8.70;;;-0.40;99.90;;;;;;5040033;28;20046;-82
2021/01/16 09:06:40;;;;;;;19.10;8.10;;;;;;;;;;5022651;28;20041;-82
2021/01/16 09:09:06;;;;;;;18.50;7.53;;;;;;;;;;5022660;28;20450;-82
2021/01/16 09:11:32;;;;;;;20.23;8.73;;;;;;;;;;5022325;28;20068;-82
2021/01/16 09:14:01;;;;;;;18.17;8.77;;;-0.40;99.90;;;;;;5022332;28;20167;-82
2021/01/16 09:16:31;;;;;;;19.23;8.15;;;-0.40;99.90;;;;;;5021959;28;20041;-82
2021/01/16 09:18:57;;;;;;;;;;;-0.50;99.90;;;;;;5022168;28;20045;-82
2021/01/16 09:21:25;;;;;;;16.58;7.82;;;-0.40;99.90;;;;;;5022036;28;19967;-82
2021/01/16 09:23:52;;;;;;;16.00;6.90;;;;;;;;;;5022636;28;20447;-82
2021/01/16 09:26:20;;;;;;;20.10;8.07;;;;;;;;;;5022276;28;20064;-82
2021/01/16 09:28:51;;;;;;;16.87;7.53;;;-0.30;99.90;;;;;;5021775;28;20037;-82
2021/01/16 09:31:26;;;;;;;20.27;8.77;;;-0.10;99.90;;;;;;5022701;28;20072;-82
2021/01/16 09:33:54;;;;;;;21.30;8.70;;;-0.20;99.90;;;;;;5023528;28;20057;-83
2021/01/16 09:36:40;;;;;;;15.48;7.55;;;-0.10;99.90;;;;;;5024444;28;20095;-83
2021/01/16 09:39:19;;;;;;;16.40;7.97;;;0.00;99.90;;;;;;5023060;28;20045;-83
2021/01/16 09:42:03;;;;;;;21.25;9.23;;;0.00;99.90;;;;;;5042994;28;20125;-83
2021/01/16 09:45:16;;;;;;;16.43;6.57;;;1.20;99.90;;;;;;4987240;28;20656;-83
2021/01/16 09:47:57;;;;;;;18.23;8.97;;;;;;;;;;5001111;28;20113;-83
2021/01/16 09:50:41;;;;;;;;;;;0.00;99.90;;;;;;5000628;28;20137;-83
2021/01/16 09:54:23;;;;;;;15.40;7.47;;;0.10;99.90;;;;;;4984023;28;20332;-83
2021/01/16 09:57:43;;;;;;;19.70;8.90;;;0.10;99.90;;;;;;4958293;28;20134;-83
2021/01/16 10:00:53;;;;;;;21.40;8.73;;;0.10;99.90;;;;;;4980214;28;20105;-83
2021/01/16 10:04:01;;;;;;;20.13;8.55;;;0.10;99.90;;;;;;4989101;28;20124;-82
2021/01/16 10:07:42;;;;;;;18.17;8.88;;;0.10;99.90;;;;;;4976535;28;20047;-83
2021/01/16 10:11:23;;;;;;;17.90;7.70;;;0.30;99.90;;;;;;4956304;28;20082;-83
2021/01/16 10:14:36;;;;;;;21.25;9.48;;;0.30;99.90;;;;;;4988492;28;20534;-83
2021/01/16 10:17:13;;;;;;;20.80;9.20;;;0.30;99.90;;;;;;5023659;28;20041;-83
2021/01/16 10:19:39;;;;;;;16.80;8.00;;;;;;;;;;5020376;28;20102;-83
2021/01/16 10:22:17;;;;;;;19.30;9.02;;;0.20;99.90;;;;;;5019974;28;20093;-83
2021/01/16 10:24:48;;;;;;;19.40;8.80;;;0.40;99.90;;;;;;5037744;28;20045;-82
2021/01/16 10:27:43;;;;;;;17.85;8.23;;;0.50;99.90;;;;;;5037963;28;20052;-82
2021/01/16 10:30:20;;;;;;;18.67;8.65;;;;;;;;;;5018969;28;20056;-82
2021/01/16 10:32:48;;;;;;;17.67;8.10;;;0.20;99.90;;;;;;5038054;28;20041;-82
2021/01/16 10:35:23;;;;;;;17.42;8.27;;;0.50;99.90;;;;;;5019090;28;20052;-82
2021/01/16 10:37:51;;;;;;;17.63;8.27;;;0.60;99.90;;;;;;5019689;28;20038;-82
2021/01/16 10:40:20;;;;;;;15.77;8.07;;;;;;;;;;5036253;28;20045;-82
2021/01/16 10:42:48;;;;;;;16.67;8.13;;;0.40;99.90;;;;;;5038056;28;20495;-82
2021/01/16 10:45:15;;;;;;;17.77;8.60;;;0.40;99.90;;;;;;5020473;28;20045;-82
2021/01/16 10:47:43;;;;;;;21.53;8.97;;;;;;;;;;5037299;28;20067;-82
2021/01/16 10:50:11;;;;;;;19.92;9.23;;;0.70;99.90;;;;;;5019155;28;20446;-82
2021/01/16 10:52:37;;;;;;;16.38;7.75;;;;;;;;;;5019225;28;20041;-82
2021/01/16 10:55:06;;;;;;;18.90;8.23;;;0.90;99.90;;;;;;5037286;28;20116;-82
2021/01/16 10:57:44;;;;;;;19.05;8.68;;;0.50;99.90;;;;;;5018652;28;20057;-82
2021/01/16 11:00:12;;;;;;;18.67;8.30;;;;;;;;;;5018049;28;20152;-82
2021/01/16 11:02:43;;;;;;;20.13;8.23;;;0.50;99.90;;;;;;5017664;28;20064;-81
2021/01/16 11:05:27;;;;;;;18.35;8.27;;;0.50;99.90;;;;;;5017914;28;20041;-81
2021/01/16 11:07:55;;;;;;;19.17;7.82;;;0.70;99.90;;;;;;5017506;28;20486;-82
2021/01/16 11:10:30;;;;;;;17.90;8.43;;;0.80;99.90;;;;;;5017413;28;20041;-81
2021/01/16 11:12:56;;;;;;;15.40;7.53;;;0.80;99.90;;;;;;5017957;28;20119;-81
2021/01/16 11:15:27;;;;;;;20.05;8.68;;;0.70;99.90;;;;;;5017913;28;20187;-82
2021/01/16 11:17:56;;;;;;;18.83;8.73;;;0.80;99.90;;;;;;5018654;28;20112;-82
2021/01/16 11:20:24;;;;;;;21.35;9.20;;;0.80;99.90;;;;;;5019207;28;20047;-82
2021/01/16 11:23:26;;;;;;;20.03;9.17;;;0.70;99.90;;;;;;5026859;28;20079;-83
2021/01/16 11:25:52;;;;;;;19.05;8.45;;;0.90;99.90;;;;;;5035234;28;20069;-81
2021/01/16 11:28:21;;;;;;;19.42;8.38;;;0.90;99.90;;;;;;5015518;28;20080;-82
2021/01/16 11:30:50;;;;;;;18.03;7.63;;;0.90;99.90;;;;;;5015405;28;20099;-81
2021/01/16 11:33:24;;;;;;;14.60;6.30;;;1.00;99.90;;;;;;5014747;28;20060;-81
2021/01/16 11:35:55;;;;;;;18.20;8.30;;;1.00;99.90;;;;;;5032630;28;20033;-81
2021/01/16 11:38:38;;;;;;;16.17;7.90;;;1.00;99.90;;;;;;5032135;28;20124;-81
2021/01/16 11:41:04;;;;;;;17.73;8.18;;;1.00;99.90;;;;;;5010969;28;20530;-81
2021/01/16 11:43:31;;;;;;;18.93;8.47;;;1.10;99.90;;;;;;4995362;28;20041;-81
2021/01/16 11:46:05;;;;;;;15.70;7.90;;;1.10;99.90;;;;;;4995306;28;20041;-80
2021/01/16 11:48:32;;;;;;;16.70;7.60;;;1.00;99.90;;;;;;5002328;28;20041;-81
2021/01/16 11:50:58;;;;;;;17.45;8.45;;;1.00;99.90;;;;;;5014805;28;20049;-81
2021/01/16 11:53:25;;;;;;;19.63;8.73;;;0.90;99.90;;;;;;5015149;28;20634;-81
2021/01/16 11:55:51;;;;;;;16.30;7.57;;;;;;;;;;5015064;28;20052;-81
2021/01/16 11:58:17;;;;;;;16.63;7.43;;;;;;;;;;5014621;28;20044;-81
2021/01/16 12:00:43;;;;;;;16.60;7.78;;;0.90;99.90;;;;;;5014888;28;20140;-82
2021/01/16 12:03:11;;;;;;;18.20;7.80;;;1.00;99.90;;;;;;5014793;28;20037;-81
2021/01/16 12:05:37;;;;;;;16.42;7.50;;;0.80;99.90;;;;;;5015635;28;20169;-81
2021/01/16 12:08:03;;;;;;;17.70;7.67;;;;;;;;;;5015458;28;20147;-82
2021/01/16 12:10:29;;;;;;;20.30;8.20;;;3.90;99.90;;;;;;5014930;28;20057;-82
2021/01/16 12:12:56;;;;;;;17.80;8.48;;;;;;;;;;5015503;28;20140;-82
2021/01/16 12:15:23;;;;;;;16.65;7.93;;;1.10;99.90;;;;;;5015028;28;20068;-82
2021/01/16 12:17:50;;;;;;;16.88;8.00;;;1.00;99.90;;;;;;5015246;28;20033;-81
2021/01/16 12:20:18;;;;;;;16.67;7.55;;;1.00;99.90;;;;;;5016829;28;20086;-81
2021/01/16 12:22:45;;;;;;;21.52;8.73;;;1.20;99.90;;;;;;5003445;28;20177;-82
2021/01/16 12:25:12;;;;;;;15.45;7.60;;;1.20;99.90;;;;;;4977751;28;20042;-82
2021/01/16 12:27:47;;;;;;;17.13;7.95;;;1.20;99.90;;;;;;4993921;28;20400;-82
2021/01/16 12:30:14;;;;;;;18.52;7.82;;;;;;;;;;4976586;28;20134;-82
2021/01/16 12:32:40;;;;;;;17.55;7.82;;;;;;;;;;4977026;28;20427;-82
2021/01/16 12:35:06;;;;;;;22.02;8.07;;;;;;;;;;4977172;28;20657;-82
2021/01/16 12:37:35;;;;;;;19.58;8.13;;;1.10;99.90;;;;;;4977936;28;20511;-82
2021/01/16 12:40:05;;;;;;;15.43;6.90;;;1.10;99.90;;;;;;4979065;28;20050;-82
2021/01/16 12:42:32;;;;;;;19.08;8.23;;;;;;;;;;4979441;28;20385;-82
2021/01/16 12:45:04;;;;;;;17.65;8.30;;;1.10;99.90;;;;;;5003027;28;20068;-82
2021/01/16 18:26:16;;;;;;;17.27;8.30;;;0.30;99.90;;;;;;4968430;29;20038;-82
2021/01/16 18:29:36;;;;;;;22.00;10.55;;;0.20;99.90;;;;;;4959678;28;20050;-82
2021/01/16 18:32:39;;;;;;;21.10;11.50;;;0.20;99.90;;;;;;4898107;29;20523;-82
2021/01/16 18:35:44;;;;;;;21.38;11.55;;;0.20;99.90;;;;;;4903170;29;20056;-82
2021/01/16 18:38:47;;;;;;;17.43;8.70;;;0.10;99.90;;;;;;4905988;29;20065;-82
2021/01/16 18:41:47;;;;;;;23.00;10.63;;;;;;;;;;4924657;29;20075;-82
2021/01/16 18:44:58;;;;;;;22.80;10.10;;;0.20;99.90;;;;;;4890751;29;20309;-82
2021/01/16 18:47:53;;;;;;;22.23;10.93;;;0.20;99.90;;;;;;4928469;29;20051;-82
2021/01/16 18:50:31;;;;;;;19.63;9.63;;;;;;;;;;4941230;29;20047;-82
2021/01/16 18:53:07;;;;;;;24.45;10.82;;;0.10;99.90;;;;;;4942012;29;20406;-82
2021/01/16 18:56:06;;;;;;;18.87;10.03;;;0.20;99.90;;;;;;4942691;29;20055;-82
2021/01/16 18:59:13;;;;;;;19.02;9.90;;;0.30;99.90;;;;;;4943696;29;20043;-81
2021/01/16 19:02:12;;;;;;;19.73;10.02;;;0.20;99.90;;;;;;4942960;29;20382;-82
2021/01/16 19:04:41;;;;;;;21.27;9.93;;;;;;;;;;4944358;29;20054;-81
2021/01/16 19:07:40;;;;;;;20.05;10.10;;;0.30;99.90;;;;;;4962164;29;20074;-81
2021/01/16 19:10:35;;;;;;;18.70;9.85;;;;;;;;;;4953564;28;20053;-82
2021/01/16 19:13:14;;;;;;;22.60;10.85;;;;;;;;;;4940554;29;20047;-82
2021/01/16 19:15:49;;;;;;;19.65;7.85;;;0.40;99.90;;;;;;4951542;29;20103;-82
2021/01/16 19:19:24;;;;;;;19.30;8.70;;;0.40;99.90;;;;;;4939758;29;20066;-82
2021/01/16 19:23:01;;;;;;;23.02;10.88;;;0.40;99.90;;;;;;4867689;29;20047;-82
2021/01/16 19:26:30;;;;;;;18.53;9.40;;;0.50;99.90;;;;;;4942187;29;20052;-83
2021/01/16 19:29:56;;;;;;;18.38;9.90;;;0.40;99.90;;;;;;4928711;29;20048;-82
2021/01/16 19:33:03;;;;;;;19.55;8.55;;;0.40;99.90;;;;;;4944627;29;20707;-81
2021/01/16 19:36:06;;;;;;;13.15;5.25;;;;;;;;;;4883351;29;20128;-82
2021/01/16 19:39:33;;;;;;;18.67;9.55;;;0.30;99.90;;;;;;4866085;29;20164;-82
2021/01/16 19:42:31;;;;;;;;;;;0.40;99.90;;;;;;4839980;29;20157;-82
2021/01/16 19:46:21;;;;;;;18.17;9.30;;;0.40;99.90;;;;;;4828071;29;19925;-82
2021/01/16 19:58:52;;;;;;;23.00;9.95;;;;;;;;;;4924744;23;20143;-82
2021/01/16 20:01:19;;;;;;;24.35;11.75;;;;;;;;;;4963942;29;20051;-81
2021/01/16 20:03:46;;;;;;;20.77;10.57;;;;;;;;;;4964544;29;20110;-82
2021/01/16 20:06:19;;;;;;;24.73;11.65;;;0.30;99.90;;;;;;4965606;29;20047;-82
2021/01/16 20:12:08;;;;;;;23.83;10.80;;;;;;;;;;5105895;23;20069;-82
2021/01/16 20:27:40;;;;;;;19.73;9.17;;;;;;;;;;5242688;23;20055;-83
2021/01/16 20:30:07;;;;;;;13.88;7.60;;;0.40;99.90;;;;;;4945015;29;20061;-82
2021/01/16 20:32:34;;;;;;;20.23;10.60;;;;;;;;;;4944744;29;20133;-84
2021/01/16 20:35:00;;;;;;;23.45;10.85;;;;;;;;;;4946359;29;20098;-82
2021/01/16 20:54:13;;;;;;;16.40;9.40;;;0.40;99.90;;;;;;4814635;29;20124;-82
2021/01/16 20:57:33;;;;;;;25.63;11.30;;;0.20;99.90;;;;;;4796666;30;20134;-82
2021/01/16 21:00:37;;;;;;;;;;;0.30;99.90;;;;;;4795382;30;20063;-82
2021/01/16 21:03:28;;;;;;;19.17;8.93;;;0.30;99.90;;;;;;4788544;29;20480;-82